sensor_id;sensor_type;location;lat;lon;timestamp;P1;durP1;ratioP1;P2;durP2;ratioP2
45536;SDS011;31262;51.978;5.924;2022-08-01T00:02:26;5.93;;;3.78;;
45536;SDS011;31262;51.978;5.924;2022-08-01T00:04:53;6.47;;;4.00;;
45536;SDS011;31262;51.978;5.924;2022-08-01T00:07:19;6.88;;;4.70;;
45536;SDS011;31262;51.978;5.924;2022-08-01T00:09:45;6.60;;;4.63;;
45536;SDS011;31262;51.978;5.924;2022-08-01T00:12:10;6.38;;;4.38;;
45536;SDS011;31262;51.978;5.924;2022-08-01T00:14:36;7.90;;;4.75;;
45536;SDS011;31262;51.978;5.924;2022-08-01T00:17:02;7.75;;;4.95;;
45536;SDS011;31262;51.978;5.924;2022-08-01T00:19:28;7.10;;;5.05;;
45536;SDS011;31262;51.978;5.924;2022-08-01T00:21:53;6.95;;;4.80;;
45536;SDS011;31262;51.978;5.924;2022-08-01T00:24:19;7.70;;;5.18;;
45536;SDS011;31262;51.978;5.924;2022-08-01T00:26:45;6.82;;;4.60;;
45536;SDS011;31262;51.978;5.924;2022-08-01T00:29:10;8.05;;;5.35;;
45536;SDS011;31262;51.978;5.924;2022-08-01T00:31:36;7.18;;;4.88;;
45536;SDS011;31262;51.978;5.924;2022-08-01T00:34:01;6.80;;;4.55;;
45536;SDS011;31262;51.978;5.924;2022-08-01T00:36:27;6.90;;;4.32;;
45536;SDS011;31262;51.978;5.924;2022-08-01T00:38:53;7.80;;;4.70;;
45536;SDS011;31262;51.978;5.924;2022-08-01T00:41:18;6.40;;;5.00;;
45536;SDS011;31262;51.978;5.924;2022-08-01T00:43:44;7.07;;;4.80;;
45536;SDS011;31262;51.978;5.924;2022-08-01T00:46:09;7.00;;;4.72;;
45536;SDS011;31262;51.978;5.924;2022-08-01T00:48:35;9.20;;;5.55;;
45536;SDS011;31262;51.978;5.924;2022-08-01T00:51:01;6.82;;;4.88;;
45536;SDS011;31262;51.978;5.924;2022-08-01T00:53:28;7.82;;;5.60;;
45536;SDS011;31262;51.978;5.924;2022-08-01T00:55:54;8.15;;;6.65;;
45536;SDS011;31262;51.978;5.924;2022-08-01T00:58:21;8.60;;;6.32;;
45536;SDS011;31262;51.978;5.924;2022-08-01T01:00:47;8.43;;;6.40;;
45536;SDS011;31262;51.978;5.924;2022-08-01T01:03:12;8.85;;;6.55;;
45536;SDS011;31262;51.978;5.924;2022-08-01T01:05:40;9.38;;;6.75;;
45536;SDS011;31262;51.978;5.924;2022-08-01T01:08:16;8.98;;;6.88;;
45536;SDS011;31262;51.978;5.924;2022-08-01T01:10:48;10.07;;;7.38;;
45536;SDS011;31262;51.978;5.924;2022-08-01T01:13:52;8.55;;;6.55;;
45536;SDS011;31262;51.978;5.924;2022-08-01T01:16:22;8.75;;;6.22;;
45536;SDS011;31262;51.978;5.924;2022-08-01T01:18:51;8.27;;;5.82;;
45536;SDS011;31262;51.978;5.924;2022-08-01T01:23:49;6.45;;;4.10;;
45536;SDS011;31262;51.978;5.924;2022-08-01T01:29:09;6.70;;;4.85;;
45536;SDS011;31262;51.978;5.924;2022-08-01T01:34:27;7.72;;;4.90;;
45536;SDS011;31262;51.978;5.924;2022-08-01T01:36:54;7.75;;;5.05;;
45536;SDS011;31262;51.978;5.924;2022-08-01T01:39:21;9.00;;;5.10;;
45536;SDS011;31262;51.978;5.924;2022-08-01T01:41:50;7.63;;;5.30;;
45536;SDS011;31262;51.978;5.924;2022-08-01T01:46:45;6.60;;;4.63;;
45536;SDS011;31262;51.978;5.924;2022-08-01T01:49:13;6.13;;;4.32;;
45536;SDS011;31262;51.978;5.924;2022-08-01T01:51:40;7.88;;;5.05;;
45536;SDS011;31262;51.978;5.924;2022-08-01T01:54:08;7.70;;;4.80;;
45536;SDS011;31262;51.978;5.924;2022-08-01T01:56:34;6.57;;;4.35;;
45536;SDS011;31262;51.978;5.924;2022-08-01T01:59:13;7.15;;;4.50;;
45536;SDS011;31262;51.978;5.924;2022-08-01T02:01:44;6.35;;;4.22;;
45536;SDS011;31262;51.978;5.924;2022-08-01T02:04:14;8.20;;;4.22;;
45536;SDS011;31262;51.978;5.924;2022-08-01T02:06:41;8.80;;;4.38;;
45536;SDS011;31262;51.978;5.924;2022-08-01T02:09:08;7.03;;;4.35;;
45536;SDS011;31262;51.978;5.924;2022-08-01T02:11:35;9.15;;;4.03;;
45536;SDS011;31262;51.978;5.924;2022-08-01T02:14:03;7.40;;;4.03;;
45536;SDS011;31262;51.978;5.924;2022-08-01T02:16:31;7.50;;;3.92;;
45536;SDS011;31262;51.978;5.924;2022-08-01T02:18:59;7.57;;;4.18;;
45536;SDS011;31262;51.978;5.924;2022-08-01T02:21:44;7.50;;;3.95;;
45536;SDS011;31262;51.978;5.924;2022-08-01T02:24:22;7.35;;;4.07;;
45536;SDS011;31262;51.978;5.924;2022-08-01T02:26:54;8.30;;;3.65;;
45536;SDS011;31262;51.978;5.924;2022-08-01T02:29:28;7.28;;;3.88;;
45536;SDS011;31262;51.978;5.924;2022-08-01T02:32:01;6.93;;;3.70;;
45536;SDS011;31262;51.978;5.924;2022-08-01T02:34:29;7.35;;;3.60;;
45536;SDS011;31262;51.978;5.924;2022-08-01T02:36:57;7.55;;;4.15;;
45536;SDS011;31262;51.978;5.924;2022-08-01T02:39:25;7.40;;;4.18;;
45536;SDS011;31262;51.978;5.924;2022-08-01T02:41:54;7.47;;;3.85;;
45536;SDS011;31262;51.978;5.924;2022-08-01T02:44:26;7.30;;;3.92;;
45536;SDS011;31262;51.978;5.924;2022-08-01T02:47:02;7.40;;;4.20;;
45536;SDS011;31262;51.978;5.924;2022-08-01T02:49:33;7.03;;;4.00;;
45536;SDS011;31262;51.978;5.924;2022-08-01T02:52:01;8.45;;;4.30;;
45536;SDS011;31262;51.978;5.924;2022-08-01T02:54:31;9.18;;;4.28;;
45536;SDS011;31262;51.978;5.924;2022-08-01T02:56:58;8.80;;;4.35;;
45536;SDS011;31262;51.978;5.924;2022-08-01T02:59:26;7.80;;;4.10;;
45536;SDS011;31262;51.978;5.924;2022-08-01T03:01:55;6.68;;;3.78;;
45536;SDS011;31262;51.978;5.924;2022-08-01T03:04:24;7.63;;;3.80;;
45536;SDS011;31262;51.978;5.924;2022-08-01T03:06:50;7.90;;;3.65;;
45536;SDS011;31262;51.978;5.924;2022-08-01T03:09:18;8.55;;;5.07;;
45536;SDS011;31262;51.978;5.924;2022-08-01T03:11:45;7.80;;;4.13;;
45536;SDS011;31262;51.978;5.924;2022-08-01T03:14:12;9.10;;;4.35;;
45536;SDS011;31262;51.978;5.924;2022-08-01T03:16:41;7.22;;;3.30;;
45536;SDS011;31262;51.978;5.924;2022-08-01T03:19:09;5.97;;;3.22;;
45536;SDS011;31262;51.978;5.924;2022-08-01T03:21:36;5.53;;;3.13;;
45536;SDS011;31262;51.978;5.924;2022-08-01T03:24:04;6.95;;;3.25;;
45536;SDS011;31262;51.978;5.924;2022-08-01T03:26:33;5.28;;;2.88;;
45536;SDS011;31262;51.978;5.924;2022-08-01T03:29:05;3.55;;;1.67;;
45536;SDS011;31262;51.978;5.924;2022-08-01T03:31:33;4.85;;;1.98;;
45536;SDS011;31262;51.978;5.924;2022-08-01T03:34:00;3.47;;;1.60;;
45536;SDS011;31262;51.978;5.924;2022-08-01T03:36:26;2.85;;;1.25;;
45536;SDS011;31262;51.978;5.924;2022-08-01T03:38:56;3.22;;;1.02;;
45536;SDS011;31262;51.978;5.924;2022-08-01T03:41:26;3.00;;;1.10;;
45536;SDS011;31262;51.978;5.924;2022-08-01T03:43:57;2.17;;;1.08;;
45536;SDS011;31262;51.978;5.924;2022-08-01T03:49:14;3.17;;;1.05;;
45536;SDS011;31262;51.978;5.924;2022-08-01T03:51:46;2.60;;;1.20;;
45536;SDS011;31262;51.978;5.924;2022-08-01T03:56:42;2.30;;;0.77;;
45536;SDS011;31262;51.978;5.924;2022-08-01T03:59:10;2.03;;;0.77;;
45536;SDS011;31262;51.978;5.924;2022-08-01T04:01:37;3.13;;;0.85;;
45536;SDS011;31262;51.978;5.924;2022-08-01T04:04:03;2.50;;;0.88;;
45536;SDS011;31262;51.978;5.924;2022-08-01T04:06:30;2.80;;;1.20;;
45536;SDS011;31262;51.978;5.924;2022-08-01T04:08:56;2.85;;;0.88;;
45536;SDS011;31262;51.978;5.924;2022-08-01T04:11:25;2.97;;;1.08;;
45536;SDS011;31262;51.978;5.924;2022-08-01T04:13:52;3.15;;;1.33;;
45536;SDS011;31262;51.978;5.924;2022-08-01T04:16:19;3.50;;;1.33;;
45536;SDS011;31262;51.978;5.924;2022-08-01T04:18:45;2.97;;;1.02;;
45536;SDS011;31262;51.978;5.924;2022-08-01T04:21:11;3.97;;;1.23;;
45536;SDS011;31262;51.978;5.924;2022-08-01T04:23:38;2.53;;;1.10;;
45536;SDS011;31262;51.978;5.924;2022-08-01T04:26:06;4.32;;;1.48;;
45536;SDS011;31262;51.978;5.924;2022-08-01T04:28:34;3.00;;;1.30;;
45536;SDS011;31262;51.978;5.924;2022-08-01T04:31:01;3.70;;;1.60;;
45536;SDS011;31262;51.978;5.924;2022-08-01T04:33:30;3.65;;;1.60;;
45536;SDS011;31262;51.978;5.924;2022-08-01T04:35:56;5.03;;;1.85;;
45536;SDS011;31262;51.978;5.924;2022-08-01T04:38:25;3.80;;;1.65;;
45536;SDS011;31262;51.978;5.924;2022-08-01T04:40:53;3.15;;;1.52;;
45536;SDS011;31262;51.978;5.924;2022-08-01T04:43:19;5.53;;;2.08;;
45536;SDS011;31262;51.978;5.924;2022-08-01T04:45:46;5.05;;;1.98;;
45536;SDS011;31262;51.978;5.924;2022-08-01T04:48:13;4.38;;;1.98;;
45536;SDS011;31262;51.978;5.924;2022-08-01T04:50:41;4.22;;;2.38;;
45536;SDS011;31262;51.978;5.924;2022-08-01T04:53:16;3.50;;;1.88;;
45536;SDS011;31262;51.978;5.924;2022-08-01T04:55:43;3.75;;;2.00;;
45536;SDS011;31262;51.978;5.924;2022-08-01T04:58:10;4.70;;;2.30;;
45536;SDS011;31262;51.978;5.924;2022-08-01T05:00:37;4.20;;;2.17;;
45536;SDS011;31262;51.978;5.924;2022-08-01T05:03:02;6.28;;;2.58;;
45536;SDS011;31262;51.978;5.924;2022-08-01T05:05:28;4.30;;;2.00;;
45536;SDS011;31262;51.978;5.924;2022-08-01T05:07:55;5.43;;;2.38;;
45536;SDS011;31262;51.978;5.924;2022-08-01T05:10:23;4.25;;;2.08;;
45536;SDS011;31262;51.978;5.924;2022-08-01T05:12:51;4.63;;;1.98;;
45536;SDS011;31262;51.978;5.924;2022-08-01T05:15:17;4.57;;;2.00;;
45536;SDS011;31262;51.978;5.924;2022-08-01T05:17:42;4.22;;;2.28;;
45536;SDS011;31262;51.978;5.924;2022-08-01T05:20:08;3.33;;;2.03;;
45536;SDS011;31262;51.978;5.924;2022-08-01T05:22:34;4.00;;;2.38;;
45536;SDS011;31262;51.978;5.924;2022-08-01T05:25:00;3.53;;;1.80;;
45536;SDS011;31262;51.978;5.924;2022-08-01T05:27:26;4.30;;;2.25;;
45536;SDS011;31262;51.978;5.924;2022-08-01T05:29:51;3.50;;;1.90;;
45536;SDS011;31262;51.978;5.924;2022-08-01T05:32:17;3.72;;;2.17;;
45536;SDS011;31262;51.978;5.924;2022-08-01T05:34:43;4.20;;;2.10;;
45536;SDS011;31262;51.978;5.924;2022-08-01T05:37:08;4.85;;;2.25;;
45536;SDS011;31262;51.978;5.924;2022-08-01T05:39:34;3.50;;;1.77;;
45536;SDS011;31262;51.978;5.924;2022-08-01T05:42:00;3.60;;;2.05;;
45536;SDS011;31262;51.978;5.924;2022-08-01T05:44:26;3.78;;;1.98;;
45536;SDS011;31262;51.978;5.924;2022-08-01T05:46:51;4.82;;;2.40;;
45536;SDS011;31262;51.978;5.924;2022-08-01T05:49:17;4.72;;;2.10;;
45536;SDS011;31262;51.978;5.924;2022-08-01T05:51:43;3.83;;;1.88;;
45536;SDS011;31262;51.978;5.924;2022-08-01T05:54:08;4.10;;;2.22;;
45536;SDS011;31262;51.978;5.924;2022-08-01T05:56:34;3.67;;;1.95;;
45536;SDS011;31262;51.978;5.924;2022-08-01T05:58:59;3.47;;;1.83;;
45536;SDS011;31262;51.978;5.924;2022-08-01T06:01:25;3.90;;;1.90;;
45536;SDS011;31262;51.978;5.924;2022-08-01T06:03:51;4.32;;;1.83;;
45536;SDS011;31262;51.978;5.924;2022-08-01T06:06:19;3.33;;;1.58;;
45536;SDS011;31262;51.978;5.924;2022-08-01T06:08:45;4.53;;;1.02;;
45536;SDS011;31262;51.978;5.924;2022-08-01T06:11:11;2.42;;;0.90;;
45536;SDS011;31262;51.978;5.924;2022-08-01T06:13:36;2.10;;;0.88;;
45536;SDS011;31262;51.978;5.924;2022-08-01T06:16:02;2.03;;;0.73;;
45536;SDS011;31262;51.978;5.924;2022-08-01T06:18:28;2.17;;;0.77;;
45536;SDS011;31262;51.978;5.924;2022-08-01T06:20:53;1.40;;;0.50;;
45536;SDS011;31262;51.978;5.924;2022-08-01T06:23:20;1.65;;;0.60;;
45536;SDS011;31262;51.978;5.924;2022-08-01T06:25:46;1.05;;;0.40;;
45536;SDS011;31262;51.978;5.924;2022-08-01T06:28:12;1.08;;;0.40;;
45536;SDS011;31262;51.978;5.924;2022-08-01T06:30:38;0.88;;;0.40;;
45536;SDS011;31262;51.978;5.924;2022-08-01T06:33:03;0.73;;;0.30;;
45536;SDS011;31262;51.978;5.924;2022-08-01T06:35:29;2.95;;;0.30;;
45536;SDS011;31262;51.978;5.924;2022-08-01T06:37:55;0.50;;;0.20;;
45536;SDS011;31262;51.978;5.924;2022-08-01T06:40:22;0.82;;;0.30;;
45536;SDS011;31262;51.978;5.924;2022-08-01T06:42:48;0.35;;;0.20;;
45536;SDS011;31262;51.978;5.924;2022-08-01T06:45:13;0.40;;;0.20;;
45536;SDS011;31262;51.978;5.924;2022-08-01T06:47:40;0.90;;;0.25;;
45536;SDS011;31262;51.978;5.924;2022-08-01T06:50:07;1.00;;;0.20;;
45536;SDS011;31262;51.978;5.924;2022-08-01T06:52:34;0.55;;;0.17;;
45536;SDS011;31262;51.978;5.924;2022-08-01T06:55:00;0.63;;;0.20;;
45536;SDS011;31262;51.978;5.924;2022-08-01T06:57:26;0.82;;;0.20;;
45536;SDS011;31262;51.978;5.924;2022-08-01T06:59:53;1.30;;;0.20;;
45536;SDS011;31262;51.978;5.924;2022-08-01T07:02:19;0.55;;;0.20;;
45536;SDS011;31262;51.978;5.924;2022-08-01T07:04:44;0.75;;;0.20;;
45536;SDS011;31262;51.978;5.924;2022-08-01T07:07:10;1.02;;;0.22;;
45536;SDS011;31262;51.978;5.924;2022-08-01T07:09:36;1.00;;;0.40;;
45536;SDS011;31262;51.978;5.924;2022-08-01T07:12:02;1.73;;;0.50;;
45536;SDS011;31262;51.978;5.924;2022-08-01T07:14:29;1.10;;;0.30;;
45536;SDS011;31262;51.978;5.924;2022-08-01T07:16:54;0.95;;;0.30;;
45536;SDS011;31262;51.978;5.924;2022-08-01T07:19:20;0.90;;;0.40;;
45536;SDS011;31262;51.978;5.924;2022-08-01T07:21:45;0.93;;;0.30;;
45536;SDS011;31262;51.978;5.924;2022-08-01T07:24:12;0.73;;;0.30;;
45536;SDS011;31262;51.978;5.924;2022-08-01T07:26:42;1.00;;;0.30;;
45536;SDS011;31262;51.978;5.924;2022-08-01T07:29:09;1.17;;;0.30;;
45536;SDS011;31262;51.978;5.924;2022-08-01T07:31:35;0.57;;;0.20;;
45536;SDS011;31262;51.978;5.924;2022-08-01T07:34:00;1.15;;;0.30;;
45536;SDS011;31262;51.978;5.924;2022-08-01T07:36:26;1.92;;;0.30;;
45536;SDS011;31262;51.978;5.924;2022-08-01T07:38:52;0.98;;;0.30;;
45536;SDS011;31262;51.978;5.924;2022-08-01T07:41:17;1.20;;;0.30;;
45536;SDS011;31262;51.978;5.924;2022-08-01T07:43:43;0.73;;;0.30;;
45536;SDS011;31262;51.978;5.924;2022-08-01T07:46:09;1.35;;;0.32;;
45536;SDS011;31262;51.978;5.924;2022-08-01T07:48:34;1.23;;;0.40;;
45536;SDS011;31262;51.978;5.924;2022-08-01T07:51:00;2.20;;;0.43;;
45536;SDS011;31262;51.978;5.924;2022-08-01T07:53:26;0.95;;;0.30;;
45536;SDS011;31262;51.978;5.924;2022-08-01T07:55:51;2.03;;;0.40;;
45536;SDS011;31262;51.978;5.924;2022-08-01T07:58:17;1.38;;;0.30;;
45536;SDS011;31262;51.978;5.924;2022-08-01T08:00:43;1.60;;;0.40;;
45536;SDS011;31262;51.978;5.924;2022-08-01T08:03:09;1.10;;;0.40;;
45536;SDS011;31262;51.978;5.924;2022-08-01T08:05:35;2.00;;;0.40;;
45536;SDS011;31262;51.978;5.924;2022-08-01T08:08:01;3.08;;;0.40;;
45536;SDS011;31262;51.978;5.924;2022-08-01T08:10:29;0.77;;;0.30;;
45536;SDS011;31262;51.978;5.924;2022-08-01T08:12:55;1.77;;;0.38;;
45536;SDS011;31262;51.978;5.924;2022-08-01T08:15:21;1.48;;;0.40;;
45536;SDS011;31262;51.978;5.924;2022-08-01T08:17:46;1.02;;;0.30;;
45536;SDS011;31262;51.978;5.924;2022-08-01T08:20:12;2.17;;;0.50;;
45536;SDS011;31262;51.978;5.924;2022-08-01T08:22:37;2.35;;;0.55;;
45536;SDS011;31262;51.978;5.924;2022-08-01T08:25:03;3.38;;;1.38;;
45536;SDS011;31262;51.978;5.924;2022-08-01T08:27:30;1.63;;;0.60;;
45536;SDS011;31262;51.978;5.924;2022-08-01T08:29:56;1.48;;;0.50;;
45536;SDS011;31262;51.978;5.924;2022-08-01T08:32:21;2.20;;;0.50;;
45536;SDS011;31262;51.978;5.924;2022-08-01T08:34:47;2.60;;;0.40;;
45536;SDS011;31262;51.978;5.924;2022-08-01T08:37:12;1.52;;;0.43;;
45536;SDS011;31262;51.978;5.924;2022-08-01T08:39:38;1.38;;;0.52;;
45536;SDS011;31262;51.978;5.924;2022-08-01T08:42:07;1.33;;;0.50;;
45536;SDS011;31262;51.978;5.924;2022-08-01T08:44:33;1.80;;;0.50;;
45536;SDS011;31262;51.978;5.924;2022-08-01T08:47:00;2.13;;;0.50;;
45536;SDS011;31262;51.978;5.924;2022-08-01T08:49:30;1.45;;;0.30;;
45536;SDS011;31262;51.978;5.924;2022-08-01T08:51:57;1.48;;;0.40;;
45536;SDS011;31262;51.978;5.924;2022-08-01T08:54:25;2.50;;;0.40;;
45536;SDS011;31262;51.978;5.924;2022-08-01T08:56:52;1.33;;;0.40;;
45536;SDS011;31262;51.978;5.924;2022-08-01T08:59:19;1.30;;;0.30;;
45536;SDS011;31262;51.978;5.924;2022-08-01T09:01:45;1.27;;;0.40;;
45536;SDS011;31262;51.978;5.924;2022-08-01T09:04:11;1.50;;;0.32;;
45536;SDS011;31262;51.978;5.924;2022-08-01T09:06:37;1.38;;;0.40;;
45536;SDS011;31262;51.978;5.924;2022-08-01T09:09:03;1.40;;;0.40;;
45536;SDS011;31262;51.978;5.924;2022-08-01T09:11:30;1.90;;;0.40;;
45536;SDS011;31262;51.978;5.924;2022-08-01T09:16:36;1.85;;;0.30;;
45536;SDS011;31262;51.978;5.924;2022-08-01T09:19:11;0.80;;;0.30;;
45536;SDS011;31262;51.978;5.924;2022-08-01T09:21:38;3.10;;;0.50;;
45536;SDS011;31262;51.978;5.924;2022-08-01T09:24:12;1.92;;;0.60;;
45536;SDS011;31262;51.978;5.924;2022-08-01T09:26:40;2.55;;;0.60;;
45536;SDS011;31262;51.978;5.924;2022-08-01T09:29:07;1.83;;;0.50;;
45536;SDS011;31262;51.978;5.924;2022-08-01T09:31:41;2.33;;;0.50;;
45536;SDS011;31262;51.978;5.924;2022-08-01T09:34:08;1.55;;;0.50;;
45536;SDS011;31262;51.978;5.924;2022-08-01T09:36:49;1.77;;;0.50;;
45536;SDS011;31262;51.978;5.924;2022-08-01T09:39:16;2.55;;;0.70;;
45536;SDS011;31262;51.978;5.924;2022-08-01T09:41:43;2.38;;;0.70;;
45536;SDS011;31262;51.978;5.924;2022-08-01T09:44:09;2.35;;;0.60;;
45536;SDS011;31262;51.978;5.924;2022-08-01T09:46:35;3.05;;;0.73;;
45536;SDS011;31262;51.978;5.924;2022-08-01T09:49:04;2.58;;;0.77;;
45536;SDS011;31262;51.978;5.924;2022-08-01T09:51:35;3.08;;;0.80;;
45536;SDS011;31262;51.978;5.924;2022-08-01T09:54:02;2.50;;;0.60;;
45536;SDS011;31262;51.978;5.924;2022-08-01T09:56:42;2.85;;;0.63;;
45536;SDS011;31262;51.978;5.924;2022-08-01T09:59:08;2.05;;;0.70;;
45536;SDS011;31262;51.978;5.924;2022-08-01T10:04:13;2.63;;;0.90;;
45536;SDS011;31262;51.978;5.924;2022-08-01T10:06:44;4.75;;;1.10;;
45536;SDS011;31262;51.978;5.924;2022-08-01T10:09:14;7.35;;;1.20;;
45536;SDS011;31262;51.978;5.924;2022-08-01T10:11:50;3.00;;;0.88;;
45536;SDS011;31262;51.978;5.924;2022-08-01T10:14:16;4.68;;;1.35;;
45536;SDS011;31262;51.978;5.924;2022-08-01T10:16:44;4.85;;;1.25;;
45536;SDS011;31262;51.978;5.924;2022-08-01T10:19:12;4.03;;;0.90;;
45536;SDS011;31262;51.978;5.924;2022-08-01T10:21:39;4.85;;;1.10;;
45536;SDS011;31262;51.978;5.924;2022-08-01T10:24:05;5.35;;;1.23;;
45536;SDS011;31262;51.978;5.924;2022-08-01T10:26:33;5.65;;;1.00;;
45536;SDS011;31262;51.978;5.924;2022-08-01T10:28:59;4.88;;;0.88;;
45536;SDS011;31262;51.978;5.924;2022-08-01T10:31:26;4.53;;;0.93;;
45536;SDS011;31262;51.978;5.924;2022-08-01T10:33:56;4.50;;;1.20;;
45536;SDS011;31262;51.978;5.924;2022-08-01T10:36:23;5.10;;;1.00;;
45536;SDS011;31262;51.978;5.924;2022-08-01T10:38:49;5.72;;;1.10;;
45536;SDS011;31262;51.978;5.924;2022-08-01T10:41:16;4.45;;;1.08;;
45536;SDS011;31262;51.978;5.924;2022-08-01T10:43:44;6.30;;;1.38;;
45536;SDS011;31262;51.978;5.924;2022-08-01T10:46:10;5.15;;;1.17;;
45536;SDS011;31262;51.978;5.924;2022-08-01T10:48:54;3.42;;;1.10;;
45536;SDS011;31262;51.978;5.924;2022-08-01T10:51:25;5.53;;;1.15;;
45536;SDS011;31262;51.978;5.924;2022-08-01T10:53:52;5.72;;;1.40;;
45536;SDS011;31262;51.978;5.924;2022-08-01T10:56:19;7.82;;;1.30;;
45536;SDS011;31262;51.978;5.924;2022-08-01T10:58:46;4.85;;;1.02;;
45536;SDS011;31262;51.978;5.924;2022-08-01T11:01:26;3.95;;;1.00;;
45536;SDS011;31262;51.978;5.924;2022-08-01T11:06:39;3.50;;;0.85;;
45536;SDS011;31262;51.978;5.924;2022-08-01T11:11:56;3.85;;;0.95;;
45536;SDS011;31262;51.978;5.924;2022-08-01T11:14:32;3.65;;;0.90;;
45536;SDS011;31262;51.978;5.924;2022-08-01T11:20:12;4.38;;;0.80;;
45536;SDS011;31262;51.978;5.924;2022-08-01T11:25:24;4.90;;;0.90;;
45536;SDS011;31262;51.978;5.924;2022-08-01T11:30:41;3.72;;;1.00;;
45536;SDS011;31262;51.978;5.924;2022-08-01T11:33:07;4.72;;;1.08;;
45536;SDS011;31262;51.978;5.924;2022-08-01T11:35:34;3.13;;;0.52;;
45536;SDS011;31262;51.978;5.924;2022-08-01T11:43:58;4.60;;;0.77;;
45536;SDS011;31262;51.978;5.924;2022-08-01T11:46:51;4.80;;;0.77;;
45536;SDS011;31262;51.978;5.924;2022-08-01T11:49:43;4.82;;;0.80;;
45536;SDS011;31262;51.978;5.924;2022-08-01T11:52:14;5.18;;;0.82;;
45536;SDS011;31262;51.978;5.924;2022-08-01T11:54:49;5.50;;;0.70;;
45536;SDS011;31262;51.978;5.924;2022-08-01T11:57:18;6.07;;;1.00;;
45536;SDS011;31262;51.978;5.924;2022-08-01T11:59:46;4.20;;;0.90;;
45536;SDS011;31262;51.978;5.924;2022-08-01T12:02:35;5.32;;;0.60;;
45536;SDS011;31262;51.978;5.924;2022-08-01T12:05:00;7.38;;;0.80;;
45536;SDS011;31262;51.978;5.924;2022-08-01T12:07:30;3.72;;;0.57;;
45536;SDS011;31262;51.978;5.924;2022-08-01T12:10:07;3.80;;;0.70;;
45536;SDS011;31262;51.978;5.924;2022-08-01T12:12:34;2.65;;;0.50;;
45536;SDS011;31262;51.978;5.924;2022-08-01T12:15:02;3.22;;;0.50;;
45536;SDS011;31262;51.978;5.924;2022-08-01T12:17:54;3.75;;;0.60;;
45536;SDS011;31262;51.978;5.924;2022-08-01T12:20:23;4.50;;;0.50;;
45536;SDS011;31262;51.978;5.924;2022-08-01T12:22:54;2.83;;;1.05;;
45536;SDS011;31262;51.978;5.924;2022-08-01T12:25:21;3.72;;;0.68;;
45536;SDS011;31262;51.978;5.924;2022-08-01T12:27:47;5.43;;;0.68;;
45536;SDS011;31262;51.978;5.924;2022-08-01T12:30:17;3.47;;;0.50;;
45536;SDS011;31262;51.978;5.924;2022-08-01T12:32:47;4.22;;;0.60;;
45536;SDS011;31262;51.978;5.924;2022-08-01T12:35:18;3.10;;;0.50;;
45536;SDS011;31262;51.978;5.924;2022-08-01T12:37:48;3.10;;;0.50;;
45536;SDS011;31262;51.978;5.924;2022-08-01T12:42:49;2.22;;;0.40;;
45536;SDS011;31262;51.978;5.924;2022-08-01T12:45:17;2.93;;;0.43;;
45536;SDS011;31262;51.978;5.924;2022-08-01T12:47:45;2.75;;;0.40;;
45536;SDS011;31262;51.978;5.924;2022-08-01T12:50:14;2.85;;;0.32;;
45536;SDS011;31262;51.978;5.924;2022-08-01T12:52:42;3.85;;;0.57;;
45536;SDS011;31262;51.978;5.924;2022-08-01T12:55:10;5.32;;;0.80;;
45536;SDS011;31262;51.978;5.924;2022-08-01T12:57:39;3.83;;;0.60;;
45536;SDS011;31262;51.978;5.924;2022-08-01T13:02:41;3.00;;;0.50;;
45536;SDS011;31262;51.978;5.924;2022-08-01T13:05:07;2.83;;;0.40;;
45536;SDS011;31262;51.978;5.924;2022-08-01T13:07:43;2.83;;;0.40;;
45536;SDS011;31262;51.978;5.924;2022-08-01T13:10:12;2.88;;;0.40;;
45536;SDS011;31262;51.978;5.924;2022-08-01T13:12:39;4.38;;;0.70;;
45536;SDS011;31262;51.978;5.924;2022-08-01T13:15:16;3.28;;;0.50;;
45536;SDS011;31262;51.978;5.924;2022-08-01T13:17:41;3.38;;;0.40;;
45536;SDS011;31262;51.978;5.924;2022-08-01T13:20:07;3.22;;;0.40;;
45536;SDS011;31262;51.978;5.924;2022-08-01T13:22:37;3.75;;;0.50;;
45536;SDS011;31262;51.978;5.924;2022-08-01T13:25:10;3.85;;;0.50;;
45536;SDS011;31262;51.978;5.924;2022-08-01T13:27:39;2.80;;;0.50;;
45536;SDS011;31262;51.978;5.924;2022-08-01T13:32:41;2.95;;;0.43;;
45536;SDS011;31262;51.978;5.924;2022-08-01T13:35:09;4.18;;;0.50;;
45536;SDS011;31262;51.978;5.924;2022-08-01T13:37:38;2.38;;;0.40;;
45536;SDS011;31262;51.978;5.924;2022-08-01T13:40:05;2.50;;;0.40;;
45536;SDS011;31262;51.978;5.924;2022-08-01T13:42:32;4.32;;;0.40;;
45536;SDS011;31262;51.978;5.924;2022-08-01T13:44:58;3.55;;;0.55;;
45536;SDS011;31262;51.978;5.924;2022-08-01T13:47:24;2.70;;;0.43;;
45536;SDS011;31262;51.978;5.924;2022-08-01T13:49:52;6.70;;;0.85;;
45536;SDS011;31262;51.978;5.924;2022-08-01T13:52:18;3.88;;;0.50;;
45536;SDS011;31262;51.978;5.924;2022-08-01T13:54:43;3.22;;;0.50;;
45536;SDS011;31262;51.978;5.924;2022-08-01T13:57:09;3.08;;;0.40;;
45536;SDS011;31262;51.978;5.924;2022-08-01T13:59:35;2.10;;;0.47;;
45536;SDS011;31262;51.978;5.924;2022-08-01T14:02:00;2.47;;;0.50;;
45536;SDS011;31262;51.978;5.924;2022-08-01T14:04:26;2.80;;;0.40;;
45536;SDS011;31262;51.978;5.924;2022-08-01T14:06:52;2.45;;;0.40;;
45536;SDS011;31262;51.978;5.924;2022-08-01T14:09:18;3.03;;;0.40;;
45536;SDS011;31262;51.978;5.924;2022-08-01T14:11:44;2.30;;;0.32;;
45536;SDS011;31262;51.978;5.924;2022-08-01T14:14:10;3.22;;;0.32;;
45536;SDS011;31262;51.978;5.924;2022-08-01T14:16:36;3.00;;;0.38;;
45536;SDS011;31262;51.978;5.924;2022-08-01T14:19:02;1.83;;;0.30;;
45536;SDS011;31262;51.978;5.924;2022-08-01T14:21:28;2.85;;;0.40;;
45536;SDS011;31262;51.978;5.924;2022-08-01T14:23:53;2.33;;;0.32;;
45536;SDS011;31262;51.978;5.924;2022-08-01T14:26:19;1.85;;;0.38;;
45536;SDS011;31262;51.978;5.924;2022-08-01T14:28:45;2.83;;;0.30;;
45536;SDS011;31262;51.978;5.924;2022-08-01T14:31:10;2.60;;;0.30;;
45536;SDS011;31262;51.978;5.924;2022-08-01T14:33:36;1.77;;;0.30;;
45536;SDS011;31262;51.978;5.924;2022-08-01T14:36:02;2.13;;;0.40;;
45536;SDS011;31262;51.978;5.924;2022-08-01T14:38:29;2.55;;;0.47;;
45536;SDS011;31262;51.978;5.924;2022-08-01T14:40:57;1.75;;;0.30;;
45536;SDS011;31262;51.978;5.924;2022-08-01T14:43:24;3.47;;;0.40;;
45536;SDS011;31262;51.978;5.924;2022-08-01T14:45:51;2.40;;;0.30;;
45536;SDS011;31262;51.978;5.924;2022-08-01T14:48:17;2.22;;;0.30;;
45536;SDS011;31262;51.978;5.924;2022-08-01T14:50:43;3.05;;;0.40;;
45536;SDS011;31262;51.978;5.924;2022-08-01T14:53:08;2.13;;;0.40;;
45536;SDS011;31262;51.978;5.924;2022-08-01T14:55:34;3.03;;;0.30;;
45536;SDS011;31262;51.978;5.924;2022-08-01T14:58:00;2.47;;;0.40;;
45536;SDS011;31262;51.978;5.924;2022-08-01T15:00:25;2.38;;;0.40;;
45536;SDS011;31262;51.978;5.924;2022-08-01T15:02:51;1.77;;;0.40;;
45536;SDS011;31262;51.978;5.924;2022-08-01T15:05:16;2.08;;;0.40;;
45536;SDS011;31262;51.978;5.924;2022-08-01T15:07:42;1.20;;;0.25;;
45536;SDS011;31262;51.978;5.924;2022-08-01T15:10:08;2.38;;;0.20;;
45536;SDS011;31262;51.978;5.924;2022-08-01T15:12:34;1.83;;;0.40;;
45536;SDS011;31262;51.978;5.924;2022-08-01T15:15:00;1.35;;;0.28;;
45536;SDS011;31262;51.978;5.924;2022-08-01T15:17:26;1.73;;;0.25;;
45536;SDS011;31262;51.978;5.924;2022-08-01T15:19:58;1.88;;;0.20;;
45536;SDS011;31262;51.978;5.924;2022-08-01T15:22:25;3.78;;;0.30;;
45536;SDS011;31262;51.978;5.924;2022-08-01T15:24:53;1.58;;;0.30;;
45536;SDS011;31262;51.978;5.924;2022-08-01T15:27:19;1.65;;;0.25;;
45536;SDS011;31262;51.978;5.924;2022-08-01T15:29:46;1.17;;;0.20;;
45536;SDS011;31262;51.978;5.924;2022-08-01T15:32:12;1.23;;;0.20;;
45536;SDS011;31262;51.978;5.924;2022-08-01T15:34:38;0.93;;;0.20;;
45536;SDS011;31262;51.978;5.924;2022-08-01T15:37:04;1.48;;;0.20;;
45536;SDS011;31262;51.978;5.924;2022-08-01T15:39:31;2.00;;;0.30;;
45536;SDS011;31262;51.978;5.924;2022-08-01T15:41:58;3.42;;;0.40;;